Time;durP1;ratioP1;P1;durP2;ratioP2;P2;SDS_P1;SDS_P2;PMS_P1;PMS_P2;Temp;Humidity;BMP_temperature;BMP_pressure;BME280_temperature;BME280_humidity;BME280_pressure;Samples;Min_cycle;Max_cycle;Signal;HPM_P1;HPM_P2
2022/01/29 00:02:01;;;;;;;0.68;0.68;;;;;;;3.31;23.36;93594.06;4978261;28;20042;-88
2022/01/29 00:04:47;;;;;;;;;;;;;;;;;;;;;
2022/01/29 00:08:02;;;;;;;0.98;0.73;;;;;;;2.98;23.74;93561.53;4975577;28;20054;-88
2022/01/29 00:10:46;;;;;;;1.27;0.88;;;;;;;2.88;23.25;93554.25;4961917;28;20051;-88
2022/01/29 00:13:50;;;;;;;0.75;0.60;;;;;;;3.26;23.56;93624.97;4975881;28;20042;-88
2022/01/29 00:19:40;;;;;;;0.90;0.52;;;;;;;3.08;23.09;93600.63;4966227;28;20113;-88
2022/01/29 00:22:41;;;;;;;0.70;0.70;;;;;;;2.78;23.02;93564.28;4981281;28;20040;-88
2022/01/29 00:25:20;;;;;;;1.75;0.82;;;;;;;2.98;23.59;93589.97;4994110;28;20046;-88
2022/01/29 00:28:26;;;;;;;;;;;;;;;;;;;;;
2022/01/29 00:31:22;;;;;;;2.72;0.80;;;;;;;2.60;23.41;93543.53;4988378;28;20034;-89
2022/01/29 00:34:22;;;;;;;1.63;0.90;;;;;;;2.75;23.59;93579.41;4958682;28;20142;-88
2022/01/29 00:37:16;;;;;;;1.25;0.77;;;;;;;2.86;24.34;93602.00;4981647;28;20199;-88
2022/01/29 00:39:54;;;;;;;1.33;0.73;;;;;;;2.47;24.37;93541.84;4983809;28;20057;-88
2022/01/29 00:42:35;;;;;;;1.50;0.80;;;;;;;2.59;24.73;93566.03;4983411;28;20436;-90
2022/01/29 00:45:07;;;;;;;1.27;0.75;;;;;;;2.44;24.76;93543.06;4988234;28;20055;-88
2022/01/29 00:48:19;;;;;;;1.17;0.80;;;;;;;2.54;25.02;93563.25;4976589;28;20034;-89
2022/01/29 00:50:48;;;;;;;1.27;0.90;;;;;;;2.61;25.03;93578.72;4970499;28;20078;-88
2022/01/29 00:53:24;;;;;;;1.10;0.77;;;;;;;2.36;24.78;93547.69;4972082;28;20030;-88
2022/01/29 00:56:23;;;;;;;;;;;;;;;;;;;;;
2022/01/29 00:59:31;;;;;;;;;;;;;;;;;;;;;
2022/01/29 01:02:17;;;;;;;1.15;0.70;;;;;;;2.60;25.47;93583.09;4992792;28;20070;-89
2022/01/29 01:05:36;;;;;;;;;;;;;;;;;;;;;
2022/01/29 01:08:33;;;;;;;1.23;0.80;;;;;;;2.35;26.00;93570.16;4994095;28;20399;-89
2022/01/29 01:11:22;;;;;;;1.90;1.10;;;;;;;2.60;25.86;93611.53;4978575;28;20510;-88
2022/01/29 01:14:20;;;;;;;1.23;0.77;;;;;;;2.42;25.85;93588.22;4986638;28;20043;-88
2022/01/29 01:17:18;;;;;;;1.15;0.77;;;;;;;2.09;26.30;93534.94;4958887;28;20047;-88
2022/01/29 01:20:25;;;;;;;1.90;1.10;;;;;;;2.05;26.32;93536.38;4974709;28;20053;-88
2022/01/29 01:23:42;;;;;;;0.70;0.70;;;;;;;2.15;26.39;93557.34;4973168;28;20093;-88
2022/01/29 01:26:31;;;;;;;2.90;0.98;;;;;;;2.32;26.63;93591.25;4973766;28;20037;-88
2022/01/29 01:29:43;;;;;;;1.90;1.00;;;;;;;1.96;26.79;93547.91;4973624;28;20047;-88
2022/01/29 01:32:19;;;;;;;1.55;0.90;;;;;;;1.91;26.00;93547.75;4973816;28;20035;-88
2022/01/29 01:35:19;;;;;;;;;;;;;;;;;;;;;
2022/01/29 01:38:10;;;;;;;;;;;;;;;;;;;;;
2022/01/29 01:41:05;;;;;;;;;;;;;;;;;;;;;
2022/01/29 01:43:54;;;;;;;;;;;;;;;;;;;;;
2022/01/29 01:46:47;;;;;;;1.40;0.82;;;;;;;1.85;26.10;93545.00;4962745;28;20062;-88
2022/01/29 01:49:54;;;;;;;1.20;0.77;;;;;;;1.96;26.63;93564.22;4992927;28;20039;-88
2022/01/29 01:52:31;;;;;;;0.90;0.63;;;;;;;1.69;26.88;93524.84;4979521;28;20125;-89
2022/01/29 01:55:26;;;;;;;;;;;;;;;;;;;;;
2022/01/29 01:58:33;;;;;;;;;;;;;;;;;;;;;
2022/01/29 02:01:31;;;;;;;;;;;;;;;;;;;;;
2022/01/29 02:04:07;;;;;;;;;;;;;;;;;;;;;
2022/01/29 02:06:49;;;;;;;2.95;0.90;;;;;;;1.54;27.37;93521.72;4997730;28;20050;-88
2022/01/29 02:12:27;;;;;;;1.98;0.90;;;;;;;1.48;27.22;93523.31;5012494;28;20034;-88
2022/01/29 02:15:14;;;;;;;2.28;1.00;;;;;;;1.47;27.13;93523.53;4996680;28;20038;-89
2022/01/29 02:18:12;;;;;;;1.60;0.90;;;;;;;1.61;27.18;93548.28;4977085;28;20034;-88
2022/01/29 02:20:56;;;;;;;2.85;1.30;;;;;;;1.43;26.64;93520.56;4986864;28;20036;-89
2022/01/29 02:23:27;;;;;;;2.47;1.10;;;;;;;1.70;26.46;93565.13;4977291;28;20043;-89
2022/01/29 02:26:00;;;;;;;1.77;1.10;;;;;;;1.38;26.73;93523.75;4978239;28;20050;-88
2022/01/29 02:29:11;;;;;;;1.52;1.00;;;;;;;1.41;27.38;93538.81;4995664;28;20045;-88
2022/01/29 02:32:20;;;;;;;;;;;;;;;;;;;;;
2022/01/29 02:35:09;;;;;;;3.15;1.33;;;;;;;1.21;27.83;93502.75;4973085;28;20082;-88
2022/01/29 02:37:50;;;;;;;2.30;1.10;;;;;;;1.30;27.77;93521.41;4991424;28;20050;-88
2022/01/29 02:40:46;;;;;;;;;;;;;;;;;;;;;
2022/01/29 02:43:56;;;;;;;3.15;1.30;;;;;;;1.74;27.66;93592.13;4984358;28;20041;-89
2022/01/29 02:47:27;;;;;;;1.75;1.08;;;;;;;1.18;27.86;93502.41;4995013;28;20046;-89
2022/01/29 02:50:07;;;;;;;2.10;1.17;;;;;;;1.14;27.41;93503.78;5002539;28;20036;-88
2022/01/29 02:52:46;;;;;;;2.13;1.05;;;;;;;1.07;27.82;93500.44;4994580;28;20096;-85
2022/01/29 02:55:24;;;;;;;3.05;1.40;;;;;;;1.18;27.11;93516.06;4995391;28;20043;-89
2022/01/29 02:58:05;;;;;;;3.03;1.50;;;;;;;1.06;27.06;93507.41;4992958;28;20415;-88
2022/01/29 03:00:43;;;;;;;2.83;1.40;;;;;;;1.09;27.32;93516.50;4995574;28;20027;-87
2022/01/29 03:03:29;;;;;;;2.13;1.30;;;;;;;1.04;27.84;93509.38;4980901;28;20484;-88
2022/01/29 03:06:34;;;;;;;2.30;1.27;;;;;;;1.25;27.91;93547.81;4979363;28;20082;-88
2022/01/29 03:09:33;;;;;;;2.10;1.10;;;;;;;1.08;27.77;93522.66;4994568;28;20089;-89
2022/01/29 03:12:41;;;;;;;1.63;1.10;;;;;;;1.13;28.12;93526.22;4963917;28;20043;-88
2022/01/29 03:15:47;;;;;;;;;;;;;;;;;;;;;
2022/01/29 03:18:50;;;;;;;;;;;;;;;;;;;;;
2022/01/29 03:21:58;;;;;;;2.85;1.30;;;;;;;1.50;29.05;93605.69;4985029;28;20037;-89
2022/01/29 03:25:03;;;;;;;2.92;1.38;;;;;;;1.46;28.33;93597.56;4975450;28;20047;-88
2022/01/29 03:27:53;;;;;;;3.15;1.55;;;;;;;1.21;28.29;93556.16;4976711;28;20492;-88
2022/01/29 03:30:29;;;;;;;2.80;1.50;;;;;;;1.37;28.30;93583.28;4989163;28;20045;-88
2022/01/29 03:33:17;;;;;;;;;;;;;;;;;;;;;
2022/01/29 03:36:24;;;;;;;3.72;1.65;;;;;;;1.13;28.39;93558.97;4976678;28;20064;-88
2022/01/29 03:39:20;;;;;;;3.50;1.60;;;;;;;0.99;28.45;93530.63;4985688;28;20499;-88
2022/01/29 03:42:02;;;;;;;5.93;1.75;;;;;;;1.06;28.70;93534.94;4960685;28;20047;-88
2022/01/29 03:44:43;;;;;;;5.78;1.70;;;;;;;1.21;28.87;93575.00;4992596;28;20050;-88
2022/01/29 03:47:41;;;;;;;5.55;1.80;;;;;;;1.28;29.35;93587.88;4981202;28;20036;-87
2022/01/29 03:50:22;;;;;;;;;;;;;;;;;;;;;
2022/01/29 03:53:20;;;;;;;3.70;1.80;;;;;;;0.97;29.05;93548.06;4994671;28;20046;-88
2022/01/29 03:56:38;;;;;;;;;;;;;;;;;;;;;
2022/01/29 03:59:28;;;;;;;5.50;1.77;;;;;;;1.02;29.90;93571.47;4996307;28;20035;-88
2022/01/29 04:02:24;;;;;;;6.38;1.95;;;;;;;0.66;29.64;93529.88;5009590;28;20110;-88
2022/01/29 04:05:19;;;;;;;5.40;1.88;;;;;;;0.61;30.02;93526.09;4993981;28;20046;-88
2022/01/29 04:08:32;;;;;;;;;;;;;;;;;;;;;
2022/01/29 04:11:19;;;;;;;3.80;1.70;;;;;;;0.52;29.20;93532.44;4995694;28;20042;-88
2022/01/29 04:14:03;;;;;;;4.85;1.63;;;;;;;0.82;29.14;93578.44;4984112;28;20092;-88
2022/01/29 04:17:03;;;;;;;3.72;1.65;;;;;;;1.00;29.37;93606.97;4979070;28;20038;-88
2022/01/29 04:20:07;;;;;;;5.15;1.90;;;;;;;0.54;29.81;93532.22;4974964;28;20094;-89
2022/01/29 04:23:06;;;;;;;;;;;;;;;;;;;;;
2022/01/29 04:25:51;;;;;;;3.75;1.60;;;;;;;0.48;29.87;93527.91;4975736;28;20042;-88
2022/01/29 04:28:36;;;;;;;3.30;1.60;;;;;;;0.49;29.95;93524.31;4984875;28;20042;-87
2022/01/29 04:31:45;;;;;;;8.60;1.80;;;;;;;0.51;29.77;93528.28;4976933;28;20043;-88
2022/01/29 04:34:13;;;;;;;3.72;1.77;;;;;;;0.65;29.43;93548.88;4993717;28;20034;-88
2022/01/29 04:37:01;;;;;;;3.22;1.70;;;;;;;0.57;28.99;93537.78;4977548;28;20503;-88
2022/01/29 04:39:48;;;;;;;;;;;;;;;;;;;;;
2022/01/29 04:42:58;;;;;;;3.80;1.80;;;;;;;0.93;28.97;93562.34;4980290;28;20104;-88
2022/01/29 04:45:36;;;;;;;4.25;1.60;;;;;;;0.73;28.31;93530.66;4977306;28;20137;-89
2022/01/29 04:48:34;;;;;;;3.30;1.67;;;;;;;0.94;28.45;93543.31;4993928;28;20057;-88
2022/01/29 04:51:36;;;;;;;3.30;1.60;;;;;;;1.22;27.99;93560.31;4978202;28;20495;-88
2022/01/29 04:54:27;;;;;;;3.97;2.03;;;;;;;0.99;28.56;93520.31;4980826;28;20031;-88
2022/01/29 04:57:10;;;;;;;;;;;;;;;;;;;;;
2022/01/29 05:00:01;;;;;;;;;;;;;;;;;;;;;
2022/01/29 05:02:40;;;;;;;3.90;1.85;;;;;;;1.40;28.53;93552.72;4981494;28;20038;-88
2022/01/29 05:05:42;;;;;;;3.42;1.63;;;;;;;1.19;27.86;93515.09;4994253;28;20042;-88
2022/01/29 05:08:20;;;;;;;4.18;1.90;;;;;;;1.11;28.42;93501.63;4977438;28;20074;-88
2022/01/29 05:11:46;;;;;;;5.60;2.03;;;;;;;1.20;29.36;93526.19;4993643;28;20054;-88
2022/01/29 05:27:02;;;;;;;4.23;2.03;;;;;;;1.10;29.22;93562.72;4993429;28;20566;-88
2022/01/29 05:29:37;;;;;;;10.07;2.05;;;;;;;1.13;28.67;93564.13;4976961;28;20129;-88
2022/01/29 05:32:18;;;;;;;3.72;2.00;;;;;;;1.06;28.12;93545.25;4993409;28;20038;-89
2022/01/29 05:34:54;;;;;;;4.43;1.90;;;;;;;1.12;29.76;93562.53;5009913;28;20133;-88
2022/01/29 05:37:54;;;;;;;6.05;1.90;;;;;;;1.22;29.90;93596.44;4978720;28;20076;-88
2022/01/29 05:40:31;;;;;;;4.32;1.80;;;;;;;0.67;30.15;93521.13;4993465;28;20032;-88
2022/01/29 05:43:37;;;;;;;;;;;;;;;;;;;;;
2022/01/29 05:46:14;;;;;;;4.13;2.05;;;;;;;0.62;30.05;93534.63;4981508;28;20515;-88
2022/01/29 05:49:09;;;;;;;3.50;1.73;;;;;;;0.47;30.60;93529.66;5007496;28;20400;-88
2022/01/29 05:52:08;;;;;;;7.90;1.85;;;;;;;0.43;30.97;93525.09;4977665;28;20038;-88
2022/01/29 05:54:58;;;;;;;3.17;1.55;;;;;;;0.64;30.78;93566.13;4970856;28;20068;-89
2022/01/29 05:57:48;;;;;;;3.70;1.70;;;;;;;0.72;30.05;93586.56;4957775;28;20042;-88
2022/01/29 06:00:46;;;;;;;2.93;1.70;;;;;;;0.72;30.50;93590.91;4980327;28;20523;-90
2022/01/29 06:04:00;;;;;;;;;;;;;;;;;;;;;
2022/01/29 06:07:04;;;;;;;;;;;;;;;;;;;;;
2022/01/29 06:09:47;;;;;;;7.00;2.08;;;;;;;0.62;30.70;93597.25;4973244;28;20042;-88
2022/01/29 06:12:43;;;;;;;3.22;1.65;;;;;;;0.45;30.76;93572.06;4958813;28;20429;-88
2022/01/29 06:15:29;;;;;;;5.90;2.13;;;;;;;0.52;31.56;93575.44;4976838;28;20054;-88
2022/01/29 06:18:30;;;;;;;4.65;2.03;;;;;;;0.66;32.04;93576.25;4986823;28;20488;-88
2022/01/29 06:24:27;;;;;;;5.03;2.00;;;;;;;0.15;30.67;93529.44;4978300;28;20407;-87
2022/01/29 06:27:33;;;;;;;3.58;1.80;;;;;;;0.56;31.04;93594.66;4979176;28;20038;-88
2022/01/29 06:30:25;;;;;;;4.47;2.00;;;;;;;0.16;31.10;93543.13;4980910;28;20031;-88
2022/01/29 06:36:14;;;;;;;4.57;1.90;;;;;;;0.53;30.80;93618.25;4985290;28;20049;-89
2022/01/29 06:38:56;;;;;;;6.68;2.25;;;;;;;0.08;30.79;93544.09;4981010;28;20038;-89
2022/01/29 06:41:35;;;;;;;3.88;1.73;;;;;;;0.22;31.22;93560.34;4983361;28;20022;-89
2022/01/29 06:44:22;;;;;;;9.85;1.90;;;;;;;0.09;31.31;93557.75;5016588;28;20037;-89
2022/01/29 06:47:35;;;;;;;4.30;1.98;;;;;;;0.25;30.37;93578.00;4982440;28;20042;-89
2022/01/29 06:50:26;;;;;;;4.43;2.17;;;;;;;0.23;30.63;93561.16;4995623;28;20068;-89
2022/01/29 06:53:34;;;;;;;3.05;1.60;;;;;;;0.75;31.06;93635.13;4995650;28;20062;-89
2022/01/29 06:56:15;;;;;;;5.35;2.42;;;;;;;0.32;31.05;93576.22;5012309;28;20112;-89
2022/01/29 06:59:19;;;;;;;;;;;;;;;;;;;;;
2022/01/29 07:02:19;;;;;;;5.18;2.10;;;;;;;0.41;30.86;93567.31;4994690;28;20042;-88
2022/01/29 07:04:52;;;;;;;2.93;1.57;;;;;;;0.91;31.53;93646.84;4979610;28;20066;-87
2022/01/29 07:07:37;;;;;;;;;;;;;;;;;;;;;
2022/01/29 07:10:37;;;;;;;6.55;2.13;;;;;;;2.75;29.35;93629.34;4995951;28;20077;-87
2022/01/29 07:13:19;;;;;;;4.68;2.20;;;;;;;5.19;26.01;93599.97;4995815;28;20045;-88
2022/01/29 07:16:06;;;;;;;5.45;2.15;;;;;;;6.77;23.42;93593.72;5010851;28;20052;-89
2022/01/29 07:19:09;;;;;;;;;;;;;;;;;;;;;
2022/01/29 07:21:56;;;;;;;5.82;2.72;;;;;;;9.60;20.11;93585.47;4985349;28;20041;-89
2022/01/29 07:24:46;;;;;;;;;;;;;;;;;;;;;
2022/01/29 07:27:27;;;;;;;7.03;3.03;;;;;;;11.24;17.77;93599.06;4982587;28;20032;-88
2022/01/29 07:30:25;;;;;;;6.47;2.63;;;;;;;9.58;19.44;93648.44;4993670;28;20042;-89
2022/01/29 07:33:24;;;;;;;;;;;;;;;;;;;;;
2022/01/29 07:36:23;;;;;;;;;;;;;;;;;;;;;
2022/01/29 07:39:06;;;;;;;5.97;2.67;;;;;;;14.03;16.78;93643.66;5011987;28;20085;-92
2022/01/29 07:41:54;;;;;;;5.88;3.10;;;;;;;15.53;15.22;93591.34;4994870;28;20403;-92
2022/01/29 07:44:35;;;;;;;;;;;;;;;;;;;;;
2022/01/29 07:47:14;;;;;;;5.07;2.67;;;;;;;17.64;13.18;93607.19;4976067;28;20122;-90
2022/01/29 07:50:07;;;;;;;6.68;3.10;;;;;;;18.47;12.86;93580.13;5008048;28;20499;-89
2022/01/29 07:52:45;;;;;;;5.80;2.80;;;;;;;19.05;12.05;93588.03;4975154;28;20055;-90
2022/01/29 07:55:32;;;;;;;;;;;;;;;;;;;;;
2022/01/29 07:58:21;;;;;;;3.75;2.00;;;;;;;19.37;11.29;93589.44;4991681;28;20058;-90
2022/01/29 08:01:00;;;;;;;4.95;2.10;;;;;;;19.23;11.46;93636.59;5006992;28;20034;-90
2022/01/29 08:03:47;;;;;;;4.07;1.85;;;;;;;19.30;10.43;93632.41;4976830;28;20044;-91
2022/01/29 08:06:26;;;;;;;4.25;1.90;;;;;;;19.00;10.73;93617.38;5006976;28;20050;-90
2022/01/29 08:09:14;;;;;;;;;;;;;;;;;;;;;
2022/01/29 08:12:20;;;;;;;3.75;1.70;;;;;;;20.74;10.32;93601.09;4991975;28;20042;-90
2022/01/29 08:15:08;;;;;;;3.83;1.83;;;;;;;21.19;10.16;93590.59;4991981;28;20038;-89
2022/01/29 08:18:06;;;;;;;3.97;2.03;;;;;;;21.90;9.75;93609.41;4992274;28;20388;-89
2022/01/29 08:21:15;;;;;;;4.10;1.92;;;;;;;21.80;9.64;93638.03;5027782;28;20038;-88
2022/01/29 08:23:53;;;;;;;3.60;1.60;;;;;;;21.39;9.88;93618.31;4978124;28;20030;-91
2022/01/29 08:26:32;;;;;;;4.85;2.13;;;;;;;21.30;10.13;93582.19;4977251;28;20484;-89
2022/01/29 08:29:10;;;;;;;5.07;2.35;;;;;;;22.30;8.77;93619.53;4991977;28;20046;-89
2022/01/29 08:31:53;;;;;;;3.75;1.80;;;;;;;23.02;9.17;93638.56;5009168;28;20476;-88
2022/01/29 08:34:27;;;;;;;3.47;1.90;;;;;;;21.37;9.09;93617.88;4992737;28;20085;-89
2022/01/29 08:36:58;;;;;;;;;;;;;;;21.34;9.66;93645.13;4994511;28;20069;-90
2022/01/29 08:39:35;;;;;;;;;;;;;;;21.57;9.55;93640.28;5010712;28;19969;-89
2022/01/29 08:42:13;;;;;;;4.13;2.13;;;;;;;21.64;9.29;93618.47;4993529;28;19917;-88
2022/01/29 08:44:59;;;;;;;4.15;1.80;;;;;;;22.79;8.65;93576.84;4994055;28;20034;-88
2022/01/29 08:47:44;;;;;;;5.53;2.40;;;;;;;22.87;9.24;93622.06;4979937;28;20042;-89
2022/01/29 08:50:16;;;;;;;3.55;1.80;;;;;;;21.72;8.84;93595.50;4993273;28;20038;-88
2022/01/29 08:53:02;;;;;;;;;;;;;;;;;;;;;
2022/01/29 08:55:40;;;;;;;3.75;1.88;;;;;;;18.29;10.83;93581.19;4991686;28;20038;-88
2022/01/29 08:58:17;;;;;;;4.93;2.20;;;;;;;16.26;12.76;93619.94;4992140;28;20027;-87
2022/01/29 09:00:56;;;;;;;4.55;1.95;;;;;;;15.90;13.15;93600.25;4991607;28;20053;-89
2022/01/29 09:04:08;;;;;;;;;;;;;;;;;;;;;
2022/01/29 09:06:50;;;;;;;4.93;1.92;;;;;;;14.66;14.47;93618.19;4990572;28;20530;-88
2022/01/29 09:09:40;;;;;;;4.15;1.90;;;;;;;14.73;14.45;93577.28;4962426;28;20042;-88
2022/01/29 09:12:29;;;;;;;;;;;;;;;;;;;;;
2022/01/29 09:15:54;;;;;;;3.50;1.73;;;;;;;14.44;13.96;93643.22;4992558;28;20047;-88
2022/01/29 09:18:48;;;;;;;;;;;;;;;;;;;;;
2022/01/29 09:21:47;;;;;;;;;;;;;;;;;;;;;
2022/01/29 09:24:21;;;;;;;3.47;1.80;;;;;;;14.63;14.84;93595.06;4987540;28;20094;-88
2022/01/29 09:27:12;;;;;;;2.97;1.45;;;;;;;15.09;14.30;93555.66;4972536;28;20058;-88
2022/01/29 09:29:59;;;;;;;4.13;1.95;;;;;;;14.09;14.71;93570.66;4971770;28;20035;-88
2022/01/29 09:32:38;;;;;;;4.07;1.95;;;;;;;13.23;15.66;93552.03;4963717;28;20459;-88
2022/01/29 09:35:19;;;;;;;;;;;;;;;;;;;;;
2022/01/29 09:38:16;;;;;;;;;;;;;;;;;;;;;
2022/01/29 09:41:36;;;;;;;5.47;1.73;;;;;;;9.56;19.46;93615.75;4993727;28;20027;-87
2022/01/29 09:44:16;;;;;;;2.92;1.40;;;;;;;8.80;20.30;93631.59;4993523;28;20034;-87
2022/01/29 09:47:00;;;;;;;5.10;1.77;;;;;;;10.59;19.60;93628.28;5008320;28;20132;-89
2022/01/29 09:49:52;;;;;;;6.15;1.60;;;;;;;11.51;18.65;93579.63;4993152;28;20085;-87
2022/01/29 09:52:36;;;;;;;4.38;1.77;;;;;;;11.57;17.93;93610.81;5008483;28;20108;-88
2022/01/29 09:55:21;;;;;;;6.20;2.20;;;;;;;10.34;18.73;93594.97;4980780;28;20523;-88
2022/01/29 09:57:59;;;;;;;5.67;1.90;;;;;;;10.46;18.88;93648.94;4957250;28;20496;-88
2022/01/29 10:00:41;;;;;;;4.43;2.00;;;;;;;9.51;19.94;93616.50;4972689;28;20304;-88
2022/01/29 10:06:37;;;;;;;;;;;;;;;;;;;;;
2022/01/29 10:09:31;;;;;;;5.05;2.17;;;;;;;10.49;18.50;93583.78;4978213;28;20081;-87
2022/01/29 10:12:43;;;;;;;6.78;2.63;;;;;;;10.95;18.95;93606.63;4974153;28;20137;-88
2022/01/29 10:15:41;;;;;;;;;;;;;;;10.30;18.80;93661.19;4965363;28;20042;-88
2022/01/29 10:18:49;;;;;;;4.80;2.50;;;;;;;11.58;19.40;93628.13;5012341;28;20037;-88
2022/01/29 10:21:47;;;;;;;6.18;2.40;;;;;;;12.02;18.33;93600.50;4995775;28;20053;-89
2022/01/29 10:24:18;;;;;;;5.55;2.63;;;;;;;12.05;18.49;93642.75;4995551;28;20034;-88
2022/01/29 10:26:49;;;;;;;4.25;2.08;;;;;;;10.82;19.85;93595.59;4995008;28;20124;-87
2022/01/29 10:29:26;;;;;;;6.25;2.67;;;;;;;9.85;21.25;93652.03;5011143;28;20041;-86
2022/01/29 10:31:57;;;;;;;8.57;2.70;;;;;;;9.90;21.46;93652.03;4994957;28;20042;-87
2022/01/29 10:34:27;;;;;;;6.55;2.50;;;;;;;10.09;21.63;93662.88;5010908;28;20061;-86
2022/01/29 10:37:20;;;;;;;6.45;2.85;;;;;;;9.87;21.49;93666.41;4995213;28;20410;-88
2022/01/29 10:40:16;;;;;;;5.18;2.45;;;;;;;9.72;21.88;93659.25;5011508;28;20444;-87
2022/01/29 10:42:41;;;;;;;5.07;2.40;;;;;;;9.45;21.89;93661.16;5009902;28;20042;-89
2022/01/29 10:45:09;;;;;;;3.88;2.03;;;;;;;9.62;21.65;93646.13;4978687;28;20048;-88
2022/01/29 10:47:57;;;;;;;5.68;2.40;;;;;;;9.88;21.94;93643.66;4995180;28;20133;-89
2022/01/29 10:50:24;;;;;;;7.50;2.55;;;;;;;9.37;22.29;93637.06;4978267;28;20034;-88
2022/01/29 10:52:49;;;;;;;5.15;2.40;;;;;;;9.69;21.86;93640.69;4979013;28;20129;-88
2022/01/29 10:55:15;;;;;;;5.40;2.53;;;;;;;9.13;22.10;93635.81;4977126;28;20129;-87
2022/01/29 10:57:49;;;;;;;6.28;2.88;;;;;;;9.58;22.28;93642.44;4978446;28;20057;-88
2022/01/29 11:03:33;;;;;;;6.05;2.88;;;;;;;10.01;21.85;93581.22;4981071;28;20054;-87
2022/01/29 11:06:02;;;;;;;7.20;2.70;;;;;;;10.16;21.28;93598.81;4993623;28;20050;-87
2022/01/29 11:08:28;;;;;;;8.77;2.90;;;;;;;10.03;20.92;93548.78;4961941;28;20038;-89
2022/01/29 11:10:58;;;;;;;7.43;2.90;;;;;;;10.16;21.22;93572.63;4993704;28;20135;-88
2022/01/29 11:13:34;;;;;;;8.45;3.28;;;;;;;10.09;21.55;93564.25;4992029;28;20037;-89
2022/01/29 11:16:08;;;;;;;5.65;2.78;;;;;;;10.06;21.50;93530.72;4978191;28;20480;-90
2022/01/29 11:18:37;;;;;;;9.05;3.15;;;;;;;9.29;21.52;93577.41;5006539;28;20129;-89
2022/01/29 11:21:06;;;;;;;9.80;3.20;;;;;;;9.18;21.46;93520.91;4969893;28;20439;-89
2022/01/29 11:23:37;;;;;;;4.93;2.28;;;;;;;9.00;22.07;93556.03;4974791;28;20041;-88
2022/01/29 11:26:50;;;;;;;;;;;;;;;;;;;;;
2022/01/29 11:29:38;;;;;;;11.68;3.95;;;;;;;8.89;22.20;93507.38;4992863;28;20048;-88
2022/01/29 11:32:23;;;;;;;8.48;3.40;;;;;;;10.24;21.62;93581.81;4998384;28;20048;-89
2022/01/29 11:35:24;;;;;;;8.25;3.30;;;;;;;9.79;20.92;93576.16;4995477;28;20034;-89
2022/01/29 11:38:03;;;;;;;7.53;3.40;;;;;;;10.41;20.46;93574.56;4991562;28;20054;-88
2022/01/29 11:41:03;;;;;;;;;;;;;;;;;;;;;
2022/01/29 11:43:38;;;;;;;7.28;3.72;;;;;;;9.80;21.62;93530.66;4997747;28;20042;-89
2022/01/29 11:46:25;;;;;;;8.95;3.60;;;;;;;10.07;21.61;93563.72;4985917;28;20133;-91
2022/01/29 11:48:53;;;;;;;6.05;2.80;;;;;;;9.95;21.27;93492.50;4990025;28;20096;-88
2022/01/29 11:51:49;;;;;;;;;;;;;;;;;;;;;
2022/01/29 11:54:27;;;;;;;8.23;3.70;;;;;;;9.75;21.02;93530.63;5009727;28;20495;-89
2022/01/29 11:57:16;;;;;;;8.30;3.60;;;;;;;9.51;21.67;93526.84;4994318;28;20041;-89
2022/01/29 12:28:17;;;;;;;;;;;;;;;;;;;;;
2022/01/29 12:48:17;;;;;;;;;;;;;;;;;;;;;
2022/01/29 12:52:09;;;;;;;11.00;4.53;;;;;;;10.41;20.42;93427.22;4802210;29;20039;-91
2022/01/29 12:55:27;;;;;;;;;;;;;;;;;;;;;
2022/01/29 13:23:37;;;;;;;4.63;2.83;;;;;;;9.56;21.63;93370.03;4741844;30;20574;-88
2022/01/29 13:35:21;;;;;;;;;;;;;;;;;;;;;
2022/01/29 13:39:05;;;;;;;;;;;;;;;;;;;;;
2022/01/29 13:41:47;;;;;;;7.43;3.08;;;;;;;9.38;21.85;93359.00;4877635;29;20048;-91
2022/01/29 13:44:21;;;;;;;8.25;3.47;;;;;;;9.38;22.56;93348.56;4969607;28;20042;-90
2022/01/29 13:47:36;;;;;;;;;;;;;;;;;;;;;
2022/01/29 13:50:43;;;;;;;6.15;2.85;;;;;;;9.96;20.83;93413.78;4992064;28;20054;-90
2022/01/29 13:53:23;;;;;;;12.68;5.07;;;;;;;9.93;21.78;93379.50;4977714;28;20039;-91
2022/01/29 13:56:02;;;;;;;14.13;5.20;;;;;;;9.73;21.46;93406.44;4980487;28;20444;-89
2022/01/29 13:59:06;;;;;;;10.57;4.88;;;;;;;9.54;21.03;93340.75;4977862;28;20171;-90
2022/01/29 14:02:14;;;;;;;10.20;4.47;;;;;;;9.99;21.83;93379.25;4990992;28;20053;-90
2022/01/29 14:05:14;;;;;;;10.10;4.50;;;;;;;9.99;22.41;93399.41;5011168;28;20503;-90
2022/01/29 14:08:32;;;;;;;11.50;4.75;;;;;;;9.24;22.56;93326.56;4970712;28;20054;-89
2022/01/29 14:11:13;;;;;;;;;;;;;;;;;;;;;
2022/01/29 14:13:50;;;;;;;10.43;4.90;;;;;;;10.09;21.92;93368.03;5003369;28;20038;-90
2022/01/29 14:16:35;;;;;;;;;;;;;;;;;;;;;
2022/01/29 14:19:18;;;;;;;10.90;4.68;;;;;;;9.90;22.39;93318.06;5001871;28;20117;-89
2022/01/29 14:21:51;;;;;;;12.48;5.70;;;;;;;9.56;22.28;93317.75;5001416;28;20065;-89
2022/01/29 14:25:04;;;;;;;13.20;6.50;;;;;;;9.50;22.26;93329.25;5009470;28;20026;-90
2022/01/29 14:27:36;;;;;;;13.75;5.55;;;;;;;9.75;21.84;93337.16;4984802;28;20558;-90
2022/01/29 14:30:51;;;;;;;11.57;6.10;;;;;;;9.93;22.22;93328.00;4994552;28;20070;-92
2022/01/29 14:34:05;;;;;;;10.55;4.40;;;;;;;9.49;22.37;93322.47;5007236;28;20137;-90
2022/01/29 14:37:14;;;;;;;7.65;4.05;;;;;;;9.30;22.27;93320.31;4987977;28;20131;-90
2022/01/29 14:40:22;;;;;;;12.27;5.75;;;;;;;9.84;22.55;93318.31;4984377;28;20046;-90
2022/01/29 14:42:58;;;;;;;15.32;6.60;;;;;;;10.40;22.38;93389.00;4997150;28;20062;-91
2022/01/29 14:46:04;;;;;;;14.32;5.57;;;;;;;10.69;21.57;93375.34;4981675;28;20459;-89
2022/01/29 14:48:50;;;;;;;13.07;6.05;;;;;;;10.44;21.96;93319.38;5000641;28;20129;-90
2022/01/29 14:51:44;;;;;;;;;;;;;;;;;;;;;
2022/01/29 14:54:16;;;;;;;14.10;6.35;;;;;;;9.94;22.39;93318.31;4996347;28;20034;-90
2022/01/29 14:56:53;;;;;;;10.35;5.20;;;;;;;10.12;22.40;93351.03;5000125;28;20684;-89
2022/01/29 14:59:24;;;;;;;14.63;6.88;;;;;;;10.48;22.29;93351.03;4977853;28;20050;-91
2022/01/29 15:02:20;;;;;;;16.08;6.45;;;;;;;10.76;23.74;93368.81;5008285;28;20041;-90
2022/01/29 15:05:28;;;;;;;;;;;;;;;;;;;;;
2022/01/29 15:08:16;;;;;;;14.80;5.95;;;;;;;10.15;22.22;93345.25;4996765;28;20479;-90
2022/01/29 15:11:16;;;;;;;11.73;5.07;;;;;;;9.78;22.53;93315.69;4979707;28;20046;-89
2022/01/29 15:14:27;;;;;;;;;;;;;;;;;;;;;
2022/01/29 15:17:29;;;;;;;12.05;5.78;;;;;;;11.07;23.55;93373.19;4993457;28;20045;-89
2022/01/29 15:20:07;;;;;;;11.07;5.47;;;;;;;11.02;22.13;93295.38;4979983;28;20042;-90
2022/01/29 15:22:47;;;;;;;12.73;5.20;;;;;;;11.61;22.82;93339.13;4993743;28;20049;-90
2022/01/29 15:25:28;;;;;;;13.90;6.28;;;;;;;11.72;21.74;93350.34;4990331;28;20125;-90
2022/01/29 15:28:05;;;;;;;15.70;5.90;;;;;;;11.66;22.35;93338.31;4979200;28;20054;-88
2022/01/29 15:31:27;;;;;;;;;;;;;;;;;;;;;
2022/01/29 15:34:19;;;;;;;12.43;4.90;;;;;;;10.74;23.86;93302.00;4988346;28;20041;-90
2022/01/29 15:38:20;;;;;;;;;;;;;;;;;;;;;
2022/01/29 15:45:41;;;;;;;;;;;;;;;;;;;;;
2022/01/29 15:52:53;;;;;;;;;;;;;;;;;;;;;
2022/01/29 15:57:04;;;;;;;;;;;;;;;;;;;;;
2022/01/29 16:04:54;;;;;;;;;;;;;;;;;;;;;
2022/01/29 16:24:24;;;;;;;;;;;;;;;;;;;;;
2022/01/29 16:31:16;;;;;;;;;;;;;;;;;;;;;
2022/01/29 16:33:55;;;;;;;;;;;;;;;;;;;;;
2022/01/29 16:37:05;;;;;;;;;;;;;;;;;;;;;
2022/01/29 16:40:02;;;;;;;18.17;8.00;;;;;;;5.71;32.57;93356.88;4988350;28;20049;-91
2022/01/29 16:46:11;;;;;;;;;;;;;;;;;;;;;
2022/01/29 16:49:04;;;;;;;;;;;;;;;;;;;;;
2022/01/29 16:51:57;;;;;;;25.42;11.48;;;;;;;4.65;32.83;93277.63;5003088;28;20042;-90
2022/01/29 16:54:30;;;;;;;22.90;10.82;;;;;;;4.85;33.04;93328.34;4978464;28;20487;-89
2022/01/29 16:57:15;;;;;;;24.83;9.97;;;;;;;4.54;33.83;93296.59;4990736;28;20038;-88
2022/01/29 16:59:46;;;;;;;22.65;8.85;;;;;;;4.36;33.80;93290.53;4991750;28;20133;-87
2022/01/29 17:02:30;;;;;;;23.52;10.57;;;;;;;4.32;33.72;93289.44;4992538;28;20038;-88
2022/01/29 17:05:09;;;;;;;31.95;13.10;;;;;;;4.59;34.21;93351.97;4972753;28;20046;-88
2022/01/29 17:07:58;;;;;;;;;;;;;;;;;;;;;
2022/01/29 17:10:55;;;;;;;21.67;9.82;;;;;;;4.01;33.98;93282.00;5007261;28;20128;-86
2022/01/29 17:13:51;;;;;;;19.55;8.68;;;;;;;4.01;33.91;93287.97;4971862;28;20150;-88
2022/01/29 17:16:29;;;;;;;42.15;14.68;;;;;;;4.02;34.20;93299.91;5005222;28;20030;-88
2022/01/29 17:18:58;;;;;;;87.30;31.45;;;;;;;3.89;34.09;93282.00;4991235;28;20057;-87
2022/01/29 17:21:26;;;;;;;64.07;24.73;;;;;;;3.82;33.89;93279.50;4961906;28;20030;-88
2022/01/29 17:23:56;;;;;;;40.45;16.33;;;;;;;3.94;33.87;93308.00;4959638;28;20105;-88
2022/01/29 17:26:22;;;;;;;31.42;13.38;;;;;;;3.84;34.00;93311.16;4990593;28;20039;-88
2022/01/29 17:28:50;;;;;;;41.03;18.40;;;;;;;3.70;33.88;93282.09;4974788;28;20037;-87
2022/01/29 17:31:19;;;;;;;48.65;22.05;;;;;;;3.60;33.61;93271.50;4992625;28;20042;-88
2022/01/29 17:34:43;;;;;;;;;;;;;;;;;;;;;
2022/01/29 17:38:29;;;;;;;33.53;11.75;;;;;;;3.97;34.10;93355.00;4946863;29;20090;-88
2022/01/29 17:41:13;;;;;;;52.92;22.10;;;;;;;3.59;34.22;93308.00;4948344;29;20105;-89
2022/01/29 17:44:15;;;;;;;58.13;27.17;;;;;;;3.30;33.98;93287.88;4932060;29;20156;-88